sensor_id;sensor_type;location;lat;lon;timestamp;temperature;humidity
32293;DHT22;43233;48.608;8.838;2023-10-13T00:01:48;18.20;32.00
32293;DHT22;43233;48.608;8.838;2023-10-13T00:04:17;18.20;32.00
32293;DHT22;43233;48.608;8.838;2023-10-13T00:06:54;18.20;31.80
32293;DHT22;43233;48.608;8.838;2023-10-13T00:09:25;18.20;31.70
32293;DHT22;43233;48.608;8.838;2023-10-13T00:11:54;18.20;31.50
32293;DHT22;43233;48.608;8.838;2023-10-13T00:14:21;18.20;31.40
32293;DHT22;43233;48.608;8.838;2023-10-13T00:16:48;18.20;31.40
32293;DHT22;43233;48.608;8.838;2023-10-13T00:19:36;18.20;31.40
32293;DHT22;43233;48.608;8.838;2023-10-13T00:22:13;18.20;31.40
32293;DHT22;43233;48.608;8.838;2023-10-13T00:24:42;18.20;31.50
32293;DHT22;43233;48.608;8.838;2023-10-13T00:27:13;18.20;31.50
32293;DHT22;43233;48.608;8.838;2023-10-13T00:30:06;18.30;31.50
32293;DHT22;43233;48.608;8.838;2023-10-13T00:32:42;18.30;31.40
32293;DHT22;43233;48.608;8.838;2023-10-13T00:35:09;18.30;31.40
32293;DHT22;43233;48.608;8.838;2023-10-13T00:37:37;18.30;31.30
32293;DHT22;43233;48.608;8.838;2023-10-13T00:40:11;18.40;31.30
32293;DHT22;43233;48.608;8.838;2023-10-13T00:43:01;18.40;31.30
32293;DHT22;43233;48.608;8.838;2023-10-13T00:45:46;18.50;31.30
32293;DHT22;43233;48.608;8.838;2023-10-13T00:48:22;18.50;31.30
32293;DHT22;43233;48.608;8.838;2023-10-13T00:51:13;18.50;31.20
32293;DHT22;43233;48.608;8.838;2023-10-13T00:53:44;18.60;31.30
32293;DHT22;43233;48.608;8.838;2023-10-13T00:56:13;18.60;31.30
32293;DHT22;43233;48.608;8.838;2023-10-13T00:58:45;18.60;31.40
32293;DHT22;43233;48.608;8.838;2023-10-13T01:01:12;18.50;31.40
32293;DHT22;43233;48.608;8.838;2023-10-13T01:03:53;18.60;31.50
32293;DHT22;43233;48.608;8.838;2023-10-13T01:06:21;18.60;32.00
32293;DHT22;43233;48.608;8.838;2023-10-13T01:09:05;18.50;32.20
32293;DHT22;43233;48.608;8.838;2023-10-13T01:11:57;18.40;32.30
32293;DHT22;43233;48.608;8.838;2023-10-13T01:14:26;18.30;32.50
32293;DHT22;43233;48.608;8.838;2023-10-13T01:16:54;18.30;32.70
32293;DHT22;43233;48.608;8.838;2023-10-13T01:19:20;18.20;32.70
32293;DHT22;43233;48.608;8.838;2023-10-13T01:21:50;18.20;33.20
32293;DHT22;43233;48.608;8.838;2023-10-13T01:24:21;18.10;33.30
32293;DHT22;43233;48.608;8.838;2023-10-13T01:26:49;17.90;33.50
32293;DHT22;43233;48.608;8.838;2023-10-13T01:29:18;17.80;33.60
32293;DHT22;43233;48.608;8.838;2023-10-13T01:31:45;17.70;33.80
32293;DHT22;43233;48.608;8.838;2023-10-13T01:34:16;17.60;33.80
32293;DHT22;43233;48.608;8.838;2023-10-13T01:36:51;17.50;34.00
32293;DHT22;43233;48.608;8.838;2023-10-13T01:39:18;17.40;34.30
32293;DHT22;43233;48.608;8.838;2023-10-13T01:41:44;17.30;34.70
32293;DHT22;43233;48.608;8.838;2023-10-13T01:44:10;17.20;34.90
32293;DHT22;43233;48.608;8.838;2023-10-13T01:46:40;17.10;35.30
32293;DHT22;43233;48.608;8.838;2023-10-13T01:49:08;17.00;35.40
32293;DHT22;43233;48.608;8.838;2023-10-13T01:51:34;17.00;35.70
32293;DHT22;43233;48.608;8.838;2023-10-13T01:54:00;16.90;35.90
32293;DHT22;43233;48.608;8.838;2023-10-13T01:56:28;16.90;36.20
32293;DHT22;43233;48.608;8.838;2023-10-13T01:58:55;16.80;36.40
32293;DHT22;43233;48.608;8.838;2023-10-13T02:01:21;16.70;36.60
32293;DHT22;43233;48.608;8.838;2023-10-13T02:03:54;16.60;36.80
32293;DHT22;43233;48.608;8.838;2023-10-13T02:06:28;16.70;36.90
32293;DHT22;43233;48.608;8.838;2023-10-13T02:08:59;16.70;36.80
32293;DHT22;43233;48.608;8.838;2023-10-13T02:11:30;16.70;36.40
32293;DHT22;43233;48.608;8.838;2023-10-13T02:13:56;16.80;35.80
32293;DHT22;43233;48.608;8.838;2023-10-13T02:16:23;16.90;35.40
32293;DHT22;43233;48.608;8.838;2023-10-13T02:18:50;17.00;35.00
32293;DHT22;43233;48.608;8.838;2023-10-13T02:21:19;17.20;34.70
32293;DHT22;43233;48.608;8.838;2023-10-13T02:23:44;17.20;34.40
32293;DHT22;43233;48.608;8.838;2023-10-13T02:26:28;17.30;34.20
32293;DHT22;43233;48.608;8.838;2023-10-13T02:29:01;17.40;33.90
32293;DHT22;43233;48.608;8.838;2023-10-13T02:31:31;17.50;33.70
32293;DHT22;43233;48.608;8.838;2023-10-13T02:33:57;17.50;33.50
32293;DHT22;43233;48.608;8.838;2023-10-13T02:36:22;17.60;33.30
32293;DHT22;43233;48.608;8.838;2023-10-13T02:38:58;17.60;33.30
32293;DHT22;43233;48.608;8.838;2023-10-13T02:41:24;17.60;33.10
32293;DHT22;43233;48.608;8.838;2023-10-13T02:43:54;17.60;33.10
32293;DHT22;43233;48.608;8.838;2023-10-13T02:46:20;17.70;33.20
32293;DHT22;43233;48.608;8.838;2023-10-13T02:48:49;17.70;33.10
32293;DHT22;43233;48.608;8.838;2023-10-13T02:51:19;17.80;32.90
32293;DHT22;43233;48.608;8.838;2023-10-13T02:53:57;17.80;33.00
32293;DHT22;43233;48.608;8.838;2023-10-13T02:56:28;17.70;33.00
32293;DHT22;43233;48.608;8.838;2023-10-13T02:58:54;17.80;32.80
32293;DHT22;43233;48.608;8.838;2023-10-13T03:01:22;17.80;32.80
32293;DHT22;43233;48.608;8.838;2023-10-13T03:03:53;17.80;32.80
32293;DHT22;43233;48.608;8.838;2023-10-13T03:06:24;17.90;32.80
32293;DHT22;43233;48.608;8.838;2023-10-13T03:08:58;17.90;32.90
32293;DHT22;43233;48.608;8.838;2023-10-13T03:11:39;17.90;32.70
32293;DHT22;43233;48.608;8.838;2023-10-13T03:14:09;18.00;32.80
32293;DHT22;43233;48.608;8.838;2023-10-13T03:16:41;17.90;33.00
32293;DHT22;43233;48.608;8.838;2023-10-13T03:19:07;17.70;33.40
32293;DHT22;43233;48.608;8.838;2023-10-13T03:21:35;17.50;33.80
32293;DHT22;43233;48.608;8.838;2023-10-13T03:24:02;17.30;34.50
32293;DHT22;43233;48.608;8.838;2023-10-13T03:26:32;17.10;34.80
32293;DHT22;43233;48.608;8.838;2023-10-13T03:29:04;16.90;35.20
32293;DHT22;43233;48.608;8.838;2023-10-13T03:31:39;16.70;35.70
32293;DHT22;43233;48.608;8.838;2023-10-13T03:34:05;16.60;36.10
32293;DHT22;43233;48.608;8.838;2023-10-13T03:36:34;16.40;36.40
32293;DHT22;43233;48.608;8.838;2023-10-13T03:39:18;16.30;36.80
32293;DHT22;43233;48.608;8.838;2023-10-13T03:41:44;16.20;37.20
32293;DHT22;43233;48.608;8.838;2023-10-13T03:44:10;16.10;37.60
32293;DHT22;43233;48.608;8.838;2023-10-13T03:46:43;16.00;37.80
32293;DHT22;43233;48.608;8.838;2023-10-13T03:49:14;15.90;38.10
32293;DHT22;43233;48.608;8.838;2023-10-13T03:51:40;15.90;38.30
32293;DHT22;43233;48.608;8.838;2023-10-13T03:54:05;15.80;38.50
32293;DHT22;43233;48.608;8.838;2023-10-13T03:56:35;15.70;38.80
32293;DHT22;43233;48.608;8.838;2023-10-13T03:59:04;15.60;39.00
32293;DHT22;43233;48.608;8.838;2023-10-13T04:01:38;15.60;39.10
32293;DHT22;43233;48.608;8.838;2023-10-13T04:04:23;15.60;39.30
32293;DHT22;43233;48.608;8.838;2023-10-13T04:07:03;15.50;39.40
32293;DHT22;43233;48.608;8.838;2023-10-13T04:09:36;15.40;40.20
32293;DHT22;43233;48.608;8.838;2023-10-13T04:12:06;15.40;39.80
32293;DHT22;43233;48.608;8.838;2023-10-13T04:14:44;15.30;40.10
32293;DHT22;43233;48.608;8.838;2023-10-13T04:17:29;15.30;40.20
32293;DHT22;43233;48.608;8.838;2023-10-13T04:19:59;15.30;40.50
32293;DHT22;43233;48.608;8.838;2023-10-13T04:22:35;15.20;40.70
32293;DHT22;43233;48.608;8.838;2023-10-13T04:25:17;15.10;41.10
32293;DHT22;43233;48.608;8.838;2023-10-13T04:28:14;15.10;41.40
32293;DHT22;43233;48.608;8.838;2023-10-13T04:33:22;15.00;41.90
32293;DHT22;43233;48.608;8.838;2023-10-13T04:36:04;15.00;42.00
32293;DHT22;43233;48.608;8.838;2023-10-13T04:38:46;15.00;42.20
32293;DHT22;43233;48.608;8.838;2023-10-13T04:41:34;14.90;42.20
32293;DHT22;43233;48.608;8.838;2023-10-13T04:44:10;14.90;42.50
32293;DHT22;43233;48.608;8.838;2023-10-13T04:46:47;14.90;42.80
32293;DHT22;43233;48.608;8.838;2023-10-13T04:49:13;14.90;43.00
32293;DHT22;43233;48.608;8.838;2023-10-13T04:51:59;14.80;43.00
32293;DHT22;43233;48.608;8.838;2023-10-13T04:54:27;14.80;43.20
32293;DHT22;43233;48.608;8.838;2023-10-13T04:57:00;14.80;43.30
32293;DHT22;43233;48.608;8.838;2023-10-13T04:59:47;14.80;43.30
32293;DHT22;43233;48.608;8.838;2023-10-13T05:02:33;14.70;43.40
32293;DHT22;43233;48.608;8.838;2023-10-13T05:05:02;14.70;43.40
32293;DHT22;43233;48.608;8.838;2023-10-13T05:07:34;14.70;43.60
32293;DHT22;43233;48.608;8.838;2023-10-13T05:10:18;14.80;42.90
32293;DHT22;43233;48.608;8.838;2023-10-13T05:13:03;15.00;42.20
32293;DHT22;43233;48.608;8.838;2023-10-13T05:15:48;15.20;41.10
32293;DHT22;43233;48.608;8.838;2023-10-13T05:18:32;15.50;40.20
32293;DHT22;43233;48.608;8.838;2023-10-13T05:21:17;15.80;39.10
32293;DHT22;43233;48.608;8.838;2023-10-13T05:24:01;16.00;38.20
32293;DHT22;43233;48.608;8.838;2023-10-13T05:26:46;16.20;37.70
32293;DHT22;43233;48.608;8.838;2023-10-13T05:29:30;16.40;37.10
32293;DHT22;43233;48.608;8.838;2023-10-13T05:32:14;16.50;36.80
32293;DHT22;43233;48.608;8.838;2023-10-13T05:34:58;16.60;36.30
32293;DHT22;43233;48.608;8.838;2023-10-13T05:37:42;16.70;36.10
32293;DHT22;43233;48.608;8.838;2023-10-13T05:40:26;16.70;35.90
32293;DHT22;43233;48.608;8.838;2023-10-13T05:43:11;16.80;35.60
32293;DHT22;43233;48.608;8.838;2023-10-13T05:46:01;16.90;35.40
32293;DHT22;43233;48.608;8.838;2023-10-13T05:48:45;17.00;35.20
32293;DHT22;43233;48.608;8.838;2023-10-13T05:51:27;17.00;35.10
32293;DHT22;43233;48.608;8.838;2023-10-13T05:54:05;17.00;35.10
32293;DHT22;43233;48.608;8.838;2023-10-13T05:59:25;17.10;34.90
32293;DHT22;43233;48.608;8.838;2023-10-13T06:02:10;17.10;34.90
32293;DHT22;43233;48.608;8.838;2023-10-13T06:04:54;17.10;34.80
32293;DHT22;43233;48.608;8.838;2023-10-13T06:07:38;17.20;34.50
32293;DHT22;43233;48.608;8.838;2023-10-13T06:10:22;17.20;34.50
32293;DHT22;43233;48.608;8.838;2023-10-13T06:13:07;17.20;34.40
32293;DHT22;43233;48.608;8.838;2023-10-13T06:15:51;17.20;34.40
32293;DHT22;43233;48.608;8.838;2023-10-13T06:18:35;17.20;34.30
32293;DHT22;43233;48.608;8.838;2023-10-13T06:23:55;17.30;34.40
32293;DHT22;43233;48.608;8.838;2023-10-13T06:26:40;17.30;34.30
32293;DHT22;43233;48.608;8.838;2023-10-13T06:29:25;17.30;34.20
32293;DHT22;43233;48.608;8.838;2023-10-13T06:31:50;17.40;34.20
32293;DHT22;43233;48.608;8.838;2023-10-13T06:34:16;17.40;34.20
32293;DHT22;43233;48.608;8.838;2023-10-13T06:36:45;17.50;34.20
32293;DHT22;43233;48.608;8.838;2023-10-13T06:39:13;17.50;34.10
32293;DHT22;43233;48.608;8.838;2023-10-13T06:41:57;17.60;34.10
32293;DHT22;43233;48.608;8.838;2023-10-13T06:44:23;17.60;34.20
32293;DHT22;43233;48.608;8.838;2023-10-13T06:46:48;17.70;34.20
32293;DHT22;43233;48.608;8.838;2023-10-13T06:49:15;17.70;35.30
32293;DHT22;43233;48.608;8.838;2023-10-13T06:51:43;17.70;35.50
32293;DHT22;43233;48.608;8.838;2023-10-13T06:54:12;17.70;35.60
32293;DHT22;43233;48.608;8.838;2023-10-13T06:56:46;17.60;35.60
32293;DHT22;43233;48.608;8.838;2023-10-13T06:59:12;17.60;35.80
32293;DHT22;43233;48.608;8.838;2023-10-13T07:01:39;17.50;35.90
32293;DHT22;43233;48.608;8.838;2023-10-13T07:04:07;17.60;36.10
32293;DHT22;43233;48.608;8.838;2023-10-13T07:06:40;17.60;36.20
32293;DHT22;43233;48.608;8.838;2023-10-13T07:09:10;17.60;36.10
32293;DHT22;43233;48.608;8.838;2023-10-13T07:11:59;17.70;36.40
32293;DHT22;43233;48.608;8.838;2023-10-13T07:14:26;17.80;36.10
32293;DHT22;43233;48.608;8.838;2023-10-13T07:16:56;17.90;36.10
32293;DHT22;43233;48.608;8.838;2023-10-13T07:19:28;18.10;36.00
32293;DHT22;43233;48.608;8.838;2023-10-13T07:21:58;18.20;35.80
32293;DHT22;43233;48.608;8.838;2023-10-13T07:24:28;18.40;36.00
32293;DHT22;43233;48.608;8.838;2023-10-13T07:27:00;18.70;35.60
32293;DHT22;43233;48.608;8.838;2023-10-13T07:29:31;18.90;34.80
32293;DHT22;43233;48.608;8.838;2023-10-13T07:32:00;19.10;33.80
32293;DHT22;43233;48.608;8.838;2023-10-13T07:34:31;19.30;33.90
32293;DHT22;43233;48.608;8.838;2023-10-13T07:36:58;19.50;33.10
32293;DHT22;43233;48.608;8.838;2023-10-13T07:39:29;19.70;31.50
32293;DHT22;43233;48.608;8.838;2023-10-13T07:42:04;20.00;30.60
32293;DHT22;43233;48.608;8.838;2023-10-13T07:44:40;20.40;29.60
32293;DHT22;43233;48.608;8.838;2023-10-13T07:47:11;20.70;28.30
32293;DHT22;43233;48.608;8.838;2023-10-13T07:49:38;21.00;27.10
32293;DHT22;43233;48.608;8.838;2023-10-13T07:52:12;21.30;26.60
32293;DHT22;43233;48.608;8.838;2023-10-13T07:54:48;21.70;25.90
32293;DHT22;43233;48.608;8.838;2023-10-13T07:57:49;22.10;25.40
32293;DHT22;43233;48.608;8.838;2023-10-13T08:00:23;22.60;23.50
32293;DHT22;43233;48.608;8.838;2023-10-13T08:03:00;23.10;23.10
32293;DHT22;43233;48.608;8.838;2023-10-13T08:05:44;23.60;22.70
32293;DHT22;43233;48.608;8.838;2023-10-13T08:08:29;24.10;21.60
32293;DHT22;43233;48.608;8.838;2023-10-13T08:11:04;24.70;20.30
32293;DHT22;43233;48.608;8.838;2023-10-13T08:13:59;25.20;19.80
32293;DHT22;43233;48.608;8.838;2023-10-13T08:16:26;25.60;19.30
32293;DHT22;43233;48.608;8.838;2023-10-13T08:19:16;26.10;18.80
32293;DHT22;43233;48.608;8.838;2023-10-13T08:21:46;26.60;17.80
32293;DHT22;43233;48.608;8.838;2023-10-13T08:24:18;27.00;18.20
32293;DHT22;43233;48.608;8.838;2023-10-13T08:26:52;27.40;17.70
32293;DHT22;43233;48.608;8.838;2023-10-13T08:29:37;27.90;17.50
32293;DHT22;43233;48.608;8.838;2023-10-13T08:32:24;28.40;17.10
32293;DHT22;43233;48.608;8.838;2023-10-13T08:34:58;28.90;16.40
32293;DHT22;43233;48.608;8.838;2023-10-13T08:37:27;29.30;16.40
32293;DHT22;43233;48.608;8.838;2023-10-13T08:42:29;29.80;16.40
32293;DHT22;43233;48.608;8.838;2023-10-13T08:45:07;30.00;15.50
32293;DHT22;43233;48.608;8.838;2023-10-13T08:47:55;30.00;15.30
32293;DHT22;43233;48.608;8.838;2023-10-13T08:56:03;30.40;14.90
32293;DHT22;43233;48.608;8.838;2023-10-13T08:58:36;30.50;14.60
32293;DHT22;43233;48.608;8.838;2023-10-13T09:01:23;30.70;14.20
32293;DHT22;43233;48.608;8.838;2023-10-13T09:04:09;31.10;14.70
32293;DHT22;43233;48.608;8.838;2023-10-13T09:06:51;31.40;13.40
32293;DHT22;43233;48.608;8.838;2023-10-13T09:12:27;32.20;12.90
32293;DHT22;43233;48.608;8.838;2023-10-13T09:15:01;33.30;12.80
32293;DHT22;43233;48.608;8.838;2023-10-13T09:17:31;33.10;12.70
32293;DHT22;43233;48.608;8.838;2023-10-13T09:20:00;33.60;11.90
32293;DHT22;43233;48.608;8.838;2023-10-13T09:22:46;33.90;11.40
32293;DHT22;43233;48.608;8.838;2023-10-13T09:25:31;34.40;11.10
32293;DHT22;43233;48.608;8.838;2023-10-13T09:28:11;34.80;10.80
32293;DHT22;43233;48.608;8.838;2023-10-13T09:30:51;35.30;12.20
32293;DHT22;43233;48.608;8.838;2023-10-13T09:33:27;36.00;10.90
32293;DHT22;43233;48.608;8.838;2023-10-13T09:36:06;36.40;10.10
32293;DHT22;43233;48.608;8.838;2023-10-13T09:38:36;36.80;9.40
32293;DHT22;43233;48.608;8.838;2023-10-13T09:41:05;37.30;9.90
32293;DHT22;43233;48.608;8.838;2023-10-13T09:43:49;37.90;8.90
32293;DHT22;43233;48.608;8.838;2023-10-13T09:46:21;38.40;8.80
32293;DHT22;43233;48.608;8.838;2023-10-13T09:48:58;38.70;7.80
32293;DHT22;43233;48.608;8.838;2023-10-13T09:51:31;38.80;7.90
32293;DHT22;43233;48.608;8.838;2023-10-13T09:56:46;39.40;7.80
32293;DHT22;43233;48.608;8.838;2023-10-13T09:59:27;39.40;7.30
32293;DHT22;43233;48.608;8.838;2023-10-13T10:02:01;39.60;6.50
32293;DHT22;43233;48.608;8.838;2023-10-13T10:04:34;39.60;6.70
32293;DHT22;43233;48.608;8.838;2023-10-13T10:07:09;39.70;7.00
32293;DHT22;43233;48.608;8.838;2023-10-13T10:09:35;39.60;6.40
32293;DHT22;43233;48.608;8.838;2023-10-13T10:12:38;38.80;6.90
32293;DHT22;43233;48.608;8.838;2023-10-13T10:17:46;38.30;7.00
32293;DHT22;43233;48.608;8.838;2023-10-13T10:20:13;38.60;7.10
32293;DHT22;43233;48.608;8.838;2023-10-13T10:22:59;39.10;7.30
32293;DHT22;43233;48.608;8.838;2023-10-13T10:25:35;39.30;7.10
32293;DHT22;43233;48.608;8.838;2023-10-13T10:28:03;38.90;7.10
32293;DHT22;43233;48.608;8.838;2023-10-13T10:30:35;38.50;6.70
32293;DHT22;43233;48.608;8.838;2023-10-13T10:33:05;38.40;6.80
32293;DHT22;43233;48.608;8.838;2023-10-13T10:35:42;38.30;6.70
32293;DHT22;43233;48.608;8.838;2023-10-13T10:38:14;37.60;7.00
32293;DHT22;43233;48.608;8.838;2023-10-13T10:43:18;35.90;8.20
32293;DHT22;43233;48.608;8.838;2023-10-13T10:45:47;36.10;8.40
32293;DHT22;43233;48.608;8.838;2023-10-13T10:48:16;36.60;7.60
32293;DHT22;43233;48.608;8.838;2023-10-13T10:50:44;37.30;7.80
32293;DHT22;43233;48.608;8.838;2023-10-13T10:53:10;37.60;7.30
32293;DHT22;43233;48.608;8.838;2023-10-13T10:55:39;37.70;7.20
32293;DHT22;43233;48.608;8.838;2023-10-13T10:58:22;37.60;7.50
32293;DHT22;43233;48.608;8.838;2023-10-13T11:01:06;37.30;7.90
32293;DHT22;43233;48.608;8.838;2023-10-13T11:04:07;36.70;8.10
32293;DHT22;43233;48.608;8.838;2023-10-13T11:06:37;36.50;8.70
32293;DHT22;43233;48.608;8.838;2023-10-13T11:09:12;36.10;8.90
32293;DHT22;43233;48.608;8.838;2023-10-13T11:11:47;35.80;9.30
32293;DHT22;43233;48.608;8.838;2023-10-13T11:14:24;35.50;9.50
32293;DHT22;43233;48.608;8.838;2023-10-13T11:16:55;35.30;9.90
32293;DHT22;43233;48.608;8.838;2023-10-13T11:19:42;35.30;9.60
32293;DHT22;43233;48.608;8.838;2023-10-13T11:22:21;35.30;9.80
32293;DHT22;43233;48.608;8.838;2023-10-13T11:25:08;35.50;9.60
32293;DHT22;43233;48.608;8.838;2023-10-13T11:27:38;35.60;9.30
32293;DHT22;43233;48.608;8.838;2023-10-13T11:30:13;35.70;9.20
32293;DHT22;43233;48.608;8.838;2023-10-13T11:32:41;35.70;9.30
32293;DHT22;43233;48.608;8.838;2023-10-13T11:35:10;35.60;9.60
32293;DHT22;43233;48.608;8.838;2023-10-13T11:37:49;35.60;9.60
32293;DHT22;43233;48.608;8.838;2023-10-13T11:40:22;35.70;9.80
32293;DHT22;43233;48.608;8.838;2023-10-13T11:43:07;35.60;10.30
32293;DHT22;43233;48.608;8.838;2023-10-13T11:45:39;35.80;9.40
32293;DHT22;43233;48.608;8.838;2023-10-13T11:48:18;35.70;9.60
32293;DHT22;43233;48.608;8.838;2023-10-13T11:50:59;35.60;9.50
32293;DHT22;43233;48.608;8.838;2023-10-13T11:53:24;35.50;9.80
32293;DHT22;43233;48.608;8.838;2023-10-13T11:55:53;35.50;9.60
32293;DHT22;43233;48.608;8.838;2023-10-13T11:58:18;35.40;9.90
32293;DHT22;43233;48.608;8.838;2023-10-13T12:00:44;35.40;9.70
32293;DHT22;43233;48.608;8.838;2023-10-13T12:03:16;35.40;9.50
32293;DHT22;43233;48.608;8.838;2023-10-13T12:06:00;35.40;8.90
32293;DHT22;43233;48.608;8.838;2023-10-13T12:08:45;35.30;9.50
32293;DHT22;43233;48.608;8.838;2023-10-13T12:11:18;35.20;9.50
32293;DHT22;43233;48.608;8.838;2023-10-13T12:13:56;35.10;8.50
32293;DHT22;43233;48.608;8.838;2023-10-13T12:16:22;35.10;8.60
32293;DHT22;43233;48.608;8.838;2023-10-13T12:18:48;35.20;8.80
32293;DHT22;43233;48.608;8.838;2023-10-13T12:21:21;35.50;7.60
32293;DHT22;43233;48.608;8.838;2023-10-13T12:23:47;35.40;8.10
32293;DHT22;43233;48.608;8.838;2023-10-13T12:26:13;35.20;8.00
32293;DHT22;43233;48.608;8.838;2023-10-13T12:28:47;35.20;8.20
32293;DHT22;43233;48.608;8.838;2023-10-13T12:31:19;35.20;8.30
32293;DHT22;43233;48.608;8.838;2023-10-13T12:33:52;35.30;8.20
32293;DHT22;43233;48.608;8.838;2023-10-13T12:36:18;35.30;7.90
32293;DHT22;43233;48.608;8.838;2023-10-13T12:38:46;35.20;7.70
32293;DHT22;43233;48.608;8.838;2023-10-13T12:41:19;35.10;7.70
32293;DHT22;43233;48.608;8.838;2023-10-13T12:44:05;34.90;7.60
32293;DHT22;43233;48.608;8.838;2023-10-13T12:47:04;34.90;7.70
32293;DHT22;43233;48.608;8.838;2023-10-13T12:49:48;35.00;7.50
32293;DHT22;43233;48.608;8.838;2023-10-13T12:52:15;35.10;8.00
32293;DHT22;43233;48.608;8.838;2023-10-13T12:54:59;35.40;7.10
32293;DHT22;43233;48.608;8.838;2023-10-13T12:57:32;35.50;7.20
32293;DHT22;43233;48.608;8.838;2023-10-13T12:59:58;35.50;7.00
32293;DHT22;43233;48.608;8.838;2023-10-13T13:02:25;35.50;7.50
32293;DHT22;43233;48.608;8.838;2023-10-13T13:04:52;35.60;6.80
32293;DHT22;43233;48.608;8.838;2023-10-13T13:07:32;35.60;7.00
32293;DHT22;43233;48.608;8.838;2023-10-13T13:10:09;35.70;7.00
32293;DHT22;43233;48.608;8.838;2023-10-13T13:12:36;35.50;6.90
32293;DHT22;43233;48.608;8.838;2023-10-13T13:15:02;35.50;7.00
32293;DHT22;43233;48.608;8.838;2023-10-13T13:17:37;35.20;6.90
32293;DHT22;43233;48.608;8.838;2023-10-13T13:20:05;34.70;7.40
32293;DHT22;43233;48.608;8.838;2023-10-13T13:22:37;34.10;8.10
32293;DHT22;43233;48.608;8.838;2023-10-13T13:25:03;33.40;8.40
32293;DHT22;43233;48.608;8.838;2023-10-13T13:27:33;32.90;8.80
32293;DHT22;43233;48.608;8.838;2023-10-13T13:29:59;32.60;9.50
32293;DHT22;43233;48.608;8.838;2023-10-13T13:32:26;32.40;9.30
32293;DHT22;43233;48.608;8.838;2023-10-13T13:34:54;32.10;9.90
32293;DHT22;43233;48.608;8.838;2023-10-13T13:37:21;31.90;9.70
32293;DHT22;43233;48.608;8.838;2023-10-13T13:39:46;31.90;9.60
32293;DHT22;43233;48.608;8.838;2023-10-13T13:42:14;31.70;9.40
32293;DHT22;43233;48.608;8.838;2023-10-13T13:44:46;31.50;9.40
32293;DHT22;43233;48.608;8.838;2023-10-13T13:47:15;31.30;9.30
32293;DHT22;43233;48.608;8.838;2023-10-13T13:49:42;31.20;9.70
32293;DHT22;43233;48.608;8.838;2023-10-13T13:52:18;31.20;10.20
32293;DHT22;43233;48.608;8.838;2023-10-13T13:54:47;31.20;9.70
32293;DHT22;43233;48.608;8.838;2023-10-13T13:57:13;31.20;9.40
32293;DHT22;43233;48.608;8.838;2023-10-13T13:59:39;31.10;9.60
32293;DHT22;43233;48.608;8.838;2023-10-13T14:02:05;31.10;9.40
32293;DHT22;43233;48.608;8.838;2023-10-13T14:04:48;30.90;9.20
32293;DHT22;43233;48.608;8.838;2023-10-13T14:07:17;30.90;9.10
32293;DHT22;43233;48.608;8.838;2023-10-13T14:09:45;30.80;9.10
32293;DHT22;43233;48.608;8.838;2023-10-13T14:12:11;30.70;9.30
32293;DHT22;43233;48.608;8.838;2023-10-13T14:14:56;30.60;9.30
32293;DHT22;43233;48.608;8.838;2023-10-13T14:17:24;30.50;9.30
32293;DHT22;43233;48.608;8.838;2023-10-13T14:19:57;30.40;9.40
32293;DHT22;43233;48.608;8.838;2023-10-13T14:22:24;30.40;9.40
32293;DHT22;43233;48.608;8.838;2023-10-13T14:24:52;30.40;9.50
32293;DHT22;43233;48.608;8.838;2023-10-13T14:27:22;30.30;9.60
32293;DHT22;43233;48.608;8.838;2023-10-13T14:29:51;30.30;9.00
32293;DHT22;43233;48.608;8.838;2023-10-13T14:32:20;30.20;9.20
32293;DHT22;43233;48.608;8.838;2023-10-13T14:34:49;30.10;9.30
32293;DHT22;43233;48.608;8.838;2023-10-13T14:37:20;30.00;9.70
32293;DHT22;43233;48.608;8.838;2023-10-13T14:39:52;30.00;9.60
32293;DHT22;43233;48.608;8.838;2023-10-13T14:42:28;29.80;9.50
32293;DHT22;43233;48.608;8.838;2023-10-13T14:45:00;29.80;9.60
32293;DHT22;43233;48.608;8.838;2023-10-13T14:47:26;29.80;9.90
32293;DHT22;43233;48.608;8.838;2023-10-13T14:49:55;29.70;9.20
32293;DHT22;43233;48.608;8.838;2023-10-13T14:52:21;29.70;9.20
32293;DHT22;43233;48.608;8.838;2023-10-13T14:54:47;29.70;9.40
32293;DHT22;43233;48.608;8.838;2023-10-13T14:57:16;29.60;9.30
32293;DHT22;43233;48.608;8.838;2023-10-13T14:59:41;29.50;9.20
32293;DHT22;43233;48.608;8.838;2023-10-13T15:02:07;29.40;9.20
32293;DHT22;43233;48.608;8.838;2023-10-13T15:04:33;29.40;9.20
32293;DHT22;43233;48.608;8.838;2023-10-13T15:07:00;29.40;9.40
32293;DHT22;43233;48.608;8.838;2023-10-13T15:09:29;29.30;9.40
32293;DHT22;43233;48.608;8.838;2023-10-13T15:11:55;29.30;9.10
32293;DHT22;43233;48.608;8.838;2023-10-13T15:14:21;29.20;8.90
32293;DHT22;43233;48.608;8.838;2023-10-13T15:16:48;29.20;9.10
32293;DHT22;43233;48.608;8.838;2023-10-13T15:19:14;29.20;9.20
32293;DHT22;43233;48.608;8.838;2023-10-13T15:21:42;29.20;9.20
32293;DHT22;43233;48.608;8.838;2023-10-13T15:24:09;29.10;9.20
32293;DHT22;43233;48.608;8.838;2023-10-13T15:26:43;29.00;9.50
32293;DHT22;43233;48.608;8.838;2023-10-13T15:29:14;29.00;9.40
32293;DHT22;43233;48.608;8.838;2023-10-13T15:31:42;29.00;9.30
32293;DHT22;43233;48.608;8.838;2023-10-13T15:34:19;29.00;9.20
32293;DHT22;43233;48.608;8.838;2023-10-13T15:36:45;28.90;9.00
32293;DHT22;43233;48.608;8.838;2023-10-13T15:39:11;28.90;9.10
32293;DHT22;43233;48.608;8.838;2023-10-13T15:41:41;28.80;9.50
32293;DHT22;43233;48.608;8.838;2023-10-13T15:44:13;28.70;9.50
32293;DHT22;43233;48.608;8.838;2023-10-13T15:46:39;28.70;9.60
32293;DHT22;43233;48.608;8.838;2023-10-13T15:49:05;28.60;9.60
32293;DHT22;43233;48.608;8.838;2023-10-13T15:51:34;28.50;9.80
32293;DHT22;43233;48.608;8.838;2023-10-13T15:54:02;28.50;9.80
32293;DHT22;43233;48.608;8.838;2023-10-13T15:56:28;28.40;10.10
32293;DHT22;43233;48.608;8.838;2023-10-13T15:59:01;28.40;10.30
32293;DHT22;43233;48.608;8.838;2023-10-13T16:01:27;28.30;10.60
32293;DHT22;43233;48.608;8.838;2023-10-13T16:03:53;28.20;10.70
32293;DHT22;43233;48.608;8.838;2023-10-13T16:06:19;28.10;10.90
32293;DHT22;43233;48.608;8.838;2023-10-13T16:08:44;28.10;11.10
32293;DHT22;43233;48.608;8.838;2023-10-13T16:11:14;28.00;11.50
32293;DHT22;43233;48.608;8.838;2023-10-13T16:13:47;27.90;11.70
32293;DHT22;43233;48.608;8.838;2023-10-13T16:16:20;27.70;12.10
32293;DHT22;43233;48.608;8.838;2023-10-13T16:18:50;27.60;12.30
32293;DHT22;43233;48.608;8.838;2023-10-13T16:21:16;27.40;12.30
32293;DHT22;43233;48.608;8.838;2023-10-13T16:23:46;27.30;12.40
32293;DHT22;43233;48.608;8.838;2023-10-13T16:26:16;27.20;12.50
32293;DHT22;43233;48.608;8.838;2023-10-13T16:28:41;27.10;12.60
32293;DHT22;43233;48.608;8.838;2023-10-13T16:31:08;26.90;12.30
32293;DHT22;43233;48.608;8.838;2023-10-13T16:33:34;26.90;12.50
32293;DHT22;43233;48.608;8.838;2023-10-13T16:36:02;26.70;12.60
32293;DHT22;43233;48.608;8.838;2023-10-13T16:38:31;26.60;12.80
32293;DHT22;43233;48.608;8.838;2023-10-13T16:40:57;26.50;12.80
32293;DHT22;43233;48.608;8.838;2023-10-13T16:43:22;26.50;13.10